sensor_id;sensor_type;location;lat;lon;timestamp;pressure;altitude;pressure_sealevel;temperature;humidity
36502;BME280;25393;46.108;3.390;2023-03-03T00:00:54;98224.22;;;4.45;76.17
36502;BME280;25393;46.108;3.390;2023-03-03T00:03:25;98228.84;;;4.53;76.15
36502;BME280;25393;46.108;3.390;2023-03-03T00:05:52;98222.28;;;4.47;76.22
36502;BME280;25393;46.108;3.390;2023-03-03T00:08:20;98223.50;;;4.43;76.36
36502;BME280;25393;46.108;3.390;2023-03-03T00:10:48;98212.81;;;4.35;77.26
36502;BME280;25393;46.108;3.390;2023-03-03T00:13:18;98203.19;;;4.25;77.05
36502;BME280;25393;46.108;3.390;2023-03-03T00:15:45;98213.16;;;4.10;77.71
36502;BME280;25393;46.108;3.390;2023-03-03T00:18:30;98203.75;;;4.08;77.69
36502;BME280;25393;46.108;3.390;2023-03-03T00:20:59;98210.16;;;4.15;78.18
36502;BME280;25393;46.108;3.390;2023-03-03T00:23:39;98205.16;;;4.12;78.57
36502;BME280;25393;46.108;3.390;2023-03-03T00:26:21;98212.47;;;4.08;78.94
36502;BME280;25393;46.108;3.390;2023-03-03T00:28:53;98213.84;;;4.12;78.21
36502;BME280;25393;46.108;3.390;2023-03-03T00:31:25;98203.88;;;3.95;78.88
36502;BME280;25393;46.108;3.390;2023-03-03T00:33:54;98209.03;;;3.96;79.07
36502;BME280;25393;46.108;3.390;2023-03-03T00:36:37;98211.75;;;3.95;78.89
36502;BME280;25393;46.108;3.390;2023-03-03T00:39:25;98209.63;;;3.89;78.75
36502;BME280;25393;46.108;3.390;2023-03-03T00:41:55;98217.84;;;3.84;79.13
36502;BME280;25393;46.108;3.390;2023-03-03T00:44:38;98218.09;;;3.81;79.34
36502;BME280;25393;46.108;3.390;2023-03-03T00:47:44;98211.34;;;3.68;79.69
36502;BME280;25393;46.108;3.390;2023-03-03T00:52:39;98218.84;;;3.72;79.06
36502;BME280;25393;46.108;3.390;2023-03-03T00:55:07;98212.78;;;3.72;78.49
36502;BME280;25393;46.108;3.390;2023-03-03T00:57:33;98218.13;;;3.70;79.59
36502;BME280;25393;46.108;3.390;2023-03-03T01:00:00;98213.63;;;3.50;79.63
36502;BME280;25393;46.108;3.390;2023-03-03T01:02:26;98224.59;;;3.55;80.16
36502;BME280;25393;46.108;3.390;2023-03-03T01:04:56;98227.81;;;3.59;79.17
36502;BME280;25393;46.108;3.390;2023-03-03T01:07:22;98216.84;;;3.53;78.76
36502;BME280;25393;46.108;3.390;2023-03-03T01:09:51;98205.19;;;3.35;79.38
36502;BME280;25393;46.108;3.390;2023-03-03T01:12:17;98220.19;;;3.33;79.85
36502;BME280;25393;46.108;3.390;2023-03-03T01:14:44;98222.56;;;3.36;80.07
36502;BME280;25393;46.108;3.390;2023-03-03T01:17:11;98211.59;;;3.31;79.36
36502;BME280;25393;46.108;3.390;2023-03-03T01:19:37;98202.81;;;3.32;79.26
36502;BME280;25393;46.108;3.390;2023-03-03T01:22:04;98216.38;;;3.37;79.45
36502;BME280;25393;46.108;3.390;2023-03-03T01:24:30;98227.69;;;3.49;79.26
36502;BME280;25393;46.108;3.390;2023-03-03T01:26:57;98216.16;;;3.40;79.37
36502;BME280;25393;46.108;3.390;2023-03-03T01:29:23;98220.31;;;3.32;80.21
36502;BME280;25393;46.108;3.390;2023-03-03T01:31:52;98228.16;;;3.43;79.32
36502;BME280;25393;46.108;3.390;2023-03-03T01:34:19;98217.09;;;3.39;79.77
36502;BME280;25393;46.108;3.390;2023-03-03T01:36:45;98212.44;;;3.21;80.46
36502;BME280;25393;46.108;3.390;2023-03-03T01:39:12;98218.41;;;3.12;81.28
36502;BME280;25393;46.108;3.390;2023-03-03T01:41:39;98209.25;;;3.06;81.47
36502;BME280;25393;46.108;3.390;2023-03-03T01:44:05;98209.34;;;3.05;81.77
36502;BME280;25393;46.108;3.390;2023-03-03T01:46:40;98203.03;;;2.85;82.08
36502;BME280;25393;46.108;3.390;2023-03-03T01:49:14;98203.97;;;2.84;82.65
36502;BME280;25393;46.108;3.390;2023-03-03T01:51:46;98221.59;;;2.93;82.64
36502;BME280;25393;46.108;3.390;2023-03-03T01:54:19;98223.38;;;2.92;82.70
36502;BME280;25393;46.108;3.390;2023-03-03T01:56:47;98203.97;;;2.84;81.47
36502;BME280;25393;46.108;3.390;2023-03-03T01:59:26;98210.03;;;2.84;82.42
36502;BME280;25393;46.108;3.390;2023-03-03T02:01:54;98217.41;;;2.90;82.71
36502;BME280;25393;46.108;3.390;2023-03-03T02:04:21;98213.88;;;2.91;81.28
36502;BME280;25393;46.108;3.390;2023-03-03T02:07:01;98217.75;;;2.86;81.88
36502;BME280;25393;46.108;3.390;2023-03-03T02:12:19;98214.41;;;2.73;81.91
36502;BME280;25393;46.108;3.390;2023-03-03T02:14:49;98214.75;;;2.68;81.87
36502;BME280;25393;46.108;3.390;2023-03-03T02:17:16;98225.25;;;2.79;81.87
36502;BME280;25393;46.108;3.390;2023-03-03T02:20:03;98203.94;;;2.73;81.20
36502;BME280;25393;46.108;3.390;2023-03-03T02:22:43;98222.69;;;3.01;81.46
36502;BME280;25393;46.108;3.390;2023-03-03T02:25:20;98221.25;;;2.97;81.92
36502;BME280;25393;46.108;3.390;2023-03-03T02:27:49;98208.28;;;2.85;82.55
36502;BME280;25393;46.108;3.390;2023-03-03T02:30:19;98205.25;;;2.78;82.34
36502;BME280;25393;46.108;3.390;2023-03-03T02:32:46;98220.34;;;2.64;82.29
36502;BME280;25393;46.108;3.390;2023-03-03T02:35:26;98219.00;;;2.58;83.48
36502;BME280;25393;46.108;3.390;2023-03-03T02:38:06;98219.25;;;2.55;83.53
36502;BME280;25393;46.108;3.390;2023-03-03T02:40:37;98222.09;;;2.52;84.06
36502;BME280;25393;46.108;3.390;2023-03-03T02:43:05;98201.63;;;2.46;83.77
36502;BME280;25393;46.108;3.390;2023-03-03T02:45:33;98208.06;;;2.53;84.15
36502;BME280;25393;46.108;3.390;2023-03-03T02:48:03;98177.47;;;2.42;84.82
36502;BME280;25393;46.108;3.390;2023-03-03T02:50:32;98210.69;;;2.53;83.90
36502;BME280;25393;46.108;3.390;2023-03-03T02:53:02;98197.66;;;2.40;84.33
36502;BME280;25393;46.108;3.390;2023-03-03T02:55:28;98187.09;;;2.42;84.16
36502;BME280;25393;46.108;3.390;2023-03-03T02:57:57;98215.09;;;2.53;84.44
36502;BME280;25393;46.108;3.390;2023-03-03T03:00:23;98215.09;;;2.53;84.68
36502;BME280;25393;46.108;3.390;2023-03-03T03:02:50;98198.84;;;2.36;85.74
36502;BME280;25393;46.108;3.390;2023-03-03T03:05:16;98216.25;;;2.48;85.83
36502;BME280;25393;46.108;3.390;2023-03-03T03:07:43;98216.91;;;2.39;85.78
36502;BME280;25393;46.108;3.390;2023-03-03T03:10:09;98226.44;;;2.40;85.65
36502;BME280;25393;46.108;3.390;2023-03-03T03:12:36;98225.28;;;2.44;85.38
36502;BME280;25393;46.108;3.390;2023-03-03T03:15:03;98221.00;;;2.43;85.78
36502;BME280;25393;46.108;3.390;2023-03-03T03:17:30;98235.41;;;2.49;86.12
36502;BME280;25393;46.108;3.390;2023-03-03T03:19:58;98221.69;;;2.34;86.59
36502;BME280;25393;46.108;3.390;2023-03-03T03:22:25;98226.34;;;2.42;86.34
36502;BME280;25393;46.108;3.390;2023-03-03T03:24:51;98203.69;;;2.30;85.90
36502;BME280;25393;46.108;3.390;2023-03-03T03:27:18;98226.13;;;2.45;85.65
36502;BME280;25393;46.108;3.390;2023-03-03T03:29:45;98231.44;;;2.43;86.11
36502;BME280;25393;46.108;3.390;2023-03-03T03:32:11;98210.84;;;2.28;87.23
36502;BME280;25393;46.108;3.390;2023-03-03T03:34:38;98228.31;;;2.27;87.24
36502;BME280;25393;46.108;3.390;2023-03-03T03:37:04;98219.25;;;2.20;87.82
36502;BME280;25393;46.108;3.390;2023-03-03T03:39:31;98224.63;;;2.30;87.17
36502;BME280;25393;46.108;3.390;2023-03-03T03:42:05;98209.78;;;2.30;86.51
36502;BME280;25393;46.108;3.390;2023-03-03T03:44:34;98230.38;;;2.35;86.36
36502;BME280;25393;46.108;3.390;2023-03-03T03:47:01;98219.78;;;2.36;85.95
36502;BME280;25393;46.108;3.390;2023-03-03T03:49:30;98226.06;;;2.34;87.15
36502;BME280;25393;46.108;3.390;2023-03-03T03:51:56;98217.84;;;2.27;86.64
36502;BME280;25393;46.108;3.390;2023-03-03T03:54:22;98204.22;;;2.11;87.34
36502;BME280;25393;46.108;3.390;2023-03-03T03:56:49;98219.56;;;2.16;87.41
36502;BME280;25393;46.108;3.390;2023-03-03T03:59:15;98216.09;;;2.04;87.22
36502;BME280;25393;46.108;3.390;2023-03-03T04:01:42;98212.28;;;2.08;88.62
36502;BME280;25393;46.108;3.390;2023-03-03T04:04:08;98204.44;;;2.08;87.80
36502;BME280;25393;46.108;3.390;2023-03-03T04:06:35;98229.25;;;2.26;87.19
36502;BME280;25393;46.108;3.390;2023-03-03T04:09:02;98229.94;;;2.17;87.36
36502;BME280;25393;46.108;3.390;2023-03-03T04:11:31;98225.66;;;2.16;87.63
36502;BME280;25393;46.108;3.390;2023-03-03T04:13:57;98229.97;;;2.05;88.62
36502;BME280;25393;46.108;3.390;2023-03-03T04:16:24;98228.59;;;2.12;88.45
36502;BME280;25393;46.108;3.390;2023-03-03T04:18:50;98232.88;;;2.13;88.96
36502;BME280;25393;46.108;3.390;2023-03-03T04:21:17;98236.88;;;2.29;88.20
36502;BME280;25393;46.108;3.390;2023-03-03T04:23:43;98224.41;;;2.33;88.40
36502;BME280;25393;46.108;3.390;2023-03-03T04:26:10;98224.41;;;2.33;88.40
36502;BME280;25393;46.108;3.390;2023-03-03T04:28:39;98225.31;;;2.21;88.62
36502;BME280;25393;46.108;3.390;2023-03-03T04:31:09;98211.50;;;2.19;87.57
36502;BME280;25393;46.108;3.390;2023-03-03T04:33:36;98223.97;;;2.15;88.39
36502;BME280;25393;46.108;3.390;2023-03-03T04:36:03;98210.72;;;2.06;89.00
36502;BME280;25393;46.108;3.390;2023-03-03T04:38:37;98223.97;;;2.15;88.33
36502;BME280;25393;46.108;3.390;2023-03-03T04:41:04;98226.88;;;2.23;87.75
36502;BME280;25393;46.108;3.390;2023-03-03T04:43:30;98210.28;;;2.12;86.10
36502;BME280;25393;46.108;3.390;2023-03-03T04:45:57;98214.28;;;2.05;86.18
36502;BME280;25393;46.108;3.390;2023-03-03T04:48:23;98209.13;;;1.92;87.19
36502;BME280;25393;46.108;3.390;2023-03-03T04:50:50;98217.19;;;1.89;87.44
36502;BME280;25393;46.108;3.390;2023-03-03T04:53:17;98225.03;;;1.89;87.27
36502;BME280;25393;46.108;3.390;2023-03-03T04:55:43;98220.41;;;1.69;86.56
36502;BME280;25393;46.108;3.390;2023-03-03T04:58:10;98236.09;;;1.69;87.87
36502;BME280;25393;46.108;3.390;2023-03-03T05:00:40;98220.81;;;1.75;87.99
36502;BME280;25393;46.108;3.390;2023-03-03T05:03:10;98217.13;;;1.78;86.61
36502;BME280;25393;46.108;3.390;2023-03-03T05:05:39;98212.13;;;1.75;85.01
36502;BME280;25393;46.108;3.390;2023-03-03T05:08:06;98214.34;;;1.68;85.38
36502;BME280;25393;46.108;3.390;2023-03-03T05:10:35;98203.66;;;1.47;85.96
36502;BME280;25393;46.108;3.390;2023-03-03T05:13:06;98208.25;;;1.44;85.56
36502;BME280;25393;46.108;3.390;2023-03-03T05:15:36;98227.88;;;1.49;86.40
36502;BME280;25393;46.108;3.390;2023-03-03T05:18:11;98214.09;;;1.35;86.25
36502;BME280;25393;46.108;3.390;2023-03-03T05:20:41;98223.50;;;1.37;86.15
36502;BME280;25393;46.108;3.390;2023-03-03T05:23:10;98221.13;;;1.22;86.93
36502;BME280;25393;46.108;3.390;2023-03-03T05:25:40;98217.47;;;1.24;87.48
36502;BME280;25393;46.108;3.390;2023-03-03T05:28:11;98236.75;;;1.34;87.53
36502;BME280;25393;46.108;3.390;2023-03-03T05:30:41;98219.31;;;1.35;86.16
36502;BME280;25393;46.108;3.390;2023-03-03T05:33:09;98191.59;;;1.09;86.67
36502;BME280;25393;46.108;3.390;2023-03-03T05:35:44;98234.91;;;1.36;87.57
36502;BME280;25393;46.108;3.390;2023-03-03T05:38:10;98224.88;;;1.30;86.97
36502;BME280;25393;46.108;3.390;2023-03-03T05:40:40;98223.84;;;1.20;86.55
36502;BME280;25393;46.108;3.390;2023-03-03T05:43:06;98219.44;;;1.21;86.56
36502;BME280;25393;46.108;3.390;2023-03-03T05:45:36;98231.88;;;1.30;86.01
36502;BME280;25393;46.108;3.390;2023-03-03T05:48:05;98239.81;;;1.28;85.95
36502;BME280;25393;46.108;3.390;2023-03-03T05:50:32;98242.84;;;1.22;86.96
36502;BME280;25393;46.108;3.390;2023-03-03T05:52:58;98226.03;;;1.14;87.38
36502;BME280;25393;46.108;3.390;2023-03-03T05:55:25;98231.25;;;1.14;87.69
36502;BME280;25393;46.108;3.390;2023-03-03T05:57:51;98249.84;;;1.09;87.93
36502;BME280;25393;46.108;3.390;2023-03-03T06:00:18;98242.94;;;1.21;88.55
36502;BME280;25393;46.108;3.390;2023-03-03T06:02:45;98245.88;;;1.16;87.95
36502;BME280;25393;46.108;3.390;2023-03-03T06:05:12;98233.25;;;1.10;89.50
36502;BME280;25393;46.108;3.390;2023-03-03T06:07:41;98238.16;;;1.15;90.02
36502;BME280;25393;46.108;3.390;2023-03-03T06:10:11;98230.81;;;1.20;90.14
36502;BME280;25393;46.108;3.390;2023-03-03T06:12:41;98237.94;;;1.18;90.82
36502;BME280;25393;46.108;3.390;2023-03-03T06:15:11;98237.44;;;1.00;91.25
36502;BME280;25393;46.108;3.390;2023-03-03T06:17:41;98250.47;;;1.13;91.72
36502;BME280;25393;46.108;3.390;2023-03-03T06:20:10;98253.00;;;1.02;92.74
36502;BME280;25393;46.108;3.390;2023-03-03T06:22:37;98238.56;;;0.96;92.73
36502;BME280;25393;46.108;3.390;2023-03-03T06:25:07;98256.66;;;1.12;93.58
36502;BME280;25393;46.108;3.390;2023-03-03T06:27:34;98254.97;;;1.11;94.05
36502;BME280;25393;46.108;3.390;2023-03-03T06:30:01;98263.03;;;1.08;93.84
36502;BME280;25393;46.108;3.390;2023-03-03T06:32:27;98246.53;;;0.94;94.92
36502;BME280;25393;46.108;3.390;2023-03-03T06:34:54;98244.22;;;0.90;94.96
36502;BME280;25393;46.108;3.390;2023-03-03T06:37:20;98249.13;;;0.94;95.20
36502;BME280;25393;46.108;3.390;2023-03-03T06:39:47;98244.53;;;0.98;95.32
36502;BME280;25393;46.108;3.390;2023-03-03T06:42:13;98260.28;;;1.09;94.66
36502;BME280;25393;46.108;3.390;2023-03-03T06:44:40;98267.94;;;1.12;95.41
36502;BME280;25393;46.108;3.390;2023-03-03T06:47:06;98253.84;;;1.02;96.02
36502;BME280;25393;46.108;3.390;2023-03-03T06:49:35;98239.81;;;1.03;96.31
36502;BME280;25393;46.108;3.390;2023-03-03T06:52:12;98261.97;;;1.35;94.32
36502;BME280;25393;46.108;3.390;2023-03-03T06:54:40;98272.50;;;1.34;94.52
36502;BME280;25393;46.108;3.390;2023-03-03T06:57:24;98271.34;;;1.50;93.47
36502;BME280;25393;46.108;3.390;2023-03-03T06:59:52;98257.22;;;1.53;91.88
36502;BME280;25393;46.108;3.390;2023-03-03T07:02:20;98261.03;;;1.36;91.69
36502;BME280;25393;46.108;3.390;2023-03-03T07:04:47;98294.28;;;1.71;91.31
36502;BME280;25393;46.108;3.390;2023-03-03T07:07:22;98298.09;;;1.41;92.28
36502;BME280;25393;46.108;3.390;2023-03-03T07:09:54;98304.03;;;1.56;92.33
36502;BME280;25393;46.108;3.390;2023-03-03T07:12:24;98302.97;;;1.59;93.68
36502;BME280;25393;46.108;3.390;2023-03-03T07:14:55;98300.09;;;1.50;94.20
36502;BME280;25393;46.108;3.390;2023-03-03T07:17:25;98313.44;;;1.59;94.52
36502;BME280;25393;46.108;3.390;2023-03-03T07:19:52;98315.03;;;1.61;95.37
36502;BME280;25393;46.108;3.390;2023-03-03T07:22:24;98327.84;;;1.77;95.03
36502;BME280;25393;46.108;3.390;2023-03-03T07:24:56;98322.19;;;1.83;95.08
36502;BME280;25393;46.108;3.390;2023-03-03T07:29:54;98331.84;;;2.06;95.75
36502;BME280;25393;46.108;3.390;2023-03-03T07:32:43;98320.72;;;2.15;94.47
36502;BME280;25393;46.108;3.390;2023-03-03T07:35:36;98329.47;;;2.27;93.32
36502;BME280;25393;46.108;3.390;2023-03-03T07:38:22;98340.47;;;2.32;93.52
36502;BME280;25393;46.108;3.390;2023-03-03T07:40:54;98320.47;;;2.31;94.32
36502;BME280;25393;46.108;3.390;2023-03-03T07:46:33;98339.78;;;2.88;93.29
36502;BME280;25393;46.108;3.390;2023-03-03T07:49:23;98323.28;;;2.99;90.98
36502;BME280;25393;46.108;3.390;2023-03-03T07:51:56;98342.88;;;3.39;89.24
36502;BME280;25393;46.108;3.390;2023-03-03T07:54:40;98341.09;;;3.73;87.97
36502;BME280;25393;46.108;3.390;2023-03-03T07:57:33;98337.41;;;4.09;86.92
36502;BME280;25393;46.108;3.390;2023-03-03T08:02:44;98337.72;;;4.70;84.05
36502;BME280;25393;46.108;3.390;2023-03-03T08:05:37;98333.97;;;4.83;81.95
36502;BME280;25393;46.108;3.390;2023-03-03T08:10:50;98342.53;;;5.17;79.11
36502;BME280;25393;46.108;3.390;2023-03-03T08:13:23;98344.06;;;5.40;78.32
36502;BME280;25393;46.108;3.390;2023-03-03T08:16:01;98347.25;;;5.65;78.47
36502;BME280;25393;46.108;3.390;2023-03-03T08:18:33;98342.56;;;5.68;78.08
36502;BME280;25393;46.108;3.390;2023-03-03T08:21:05;98354.91;;;5.77;77.20
36502;BME280;25393;46.108;3.390;2023-03-03T08:23:41;98351.22;;;5.80;77.66
36502;BME280;25393;46.108;3.390;2023-03-03T08:26:11;98340.38;;;5.73;78.30
36502;BME280;25393;46.108;3.390;2023-03-03T08:28:42;98334.56;;;5.70;78.05
36502;BME280;25393;46.108;3.390;2023-03-03T08:31:12;98350.63;;;5.76;77.78
36502;BME280;25393;46.108;3.390;2023-03-03T08:33:53;98332.44;;;5.64;77.33
36502;BME280;25393;46.108;3.390;2023-03-03T08:36:19;98360.91;;;5.79;77.26
36502;BME280;25393;46.108;3.390;2023-03-03T08:38:47;98340.00;;;5.57;76.80
36502;BME280;25393;46.108;3.390;2023-03-03T08:41:13;98349.94;;;5.53;77.24
36502;BME280;25393;46.108;3.390;2023-03-03T08:43:40;98331.00;;;5.29;77.77
36502;BME280;25393;46.108;3.390;2023-03-03T08:46:06;98360.94;;;5.38;77.86
36502;BME280;25393;46.108;3.390;2023-03-03T08:48:36;98367.16;;;5.37;77.84
36502;BME280;25393;46.108;3.390;2023-03-03T08:51:04;98371.06;;;5.42;77.83
36502;BME280;25393;46.108;3.390;2023-03-03T08:53:31;98365.53;;;5.45;77.95
36502;BME280;25393;46.108;3.390;2023-03-03T08:56:02;98364.56;;;5.46;78.56
36502;BME280;25393;46.108;3.390;2023-03-03T08:58:29;98339.34;;;5.34;78.05
36502;BME280;25393;46.108;3.390;2023-03-03T09:01:02;98360.22;;;5.57;77.65
36502;BME280;25393;46.108;3.390;2023-03-03T09:03:29;98353.13;;;5.78;75.07
36502;BME280;25393;46.108;3.390;2023-03-03T09:05:55;98367.53;;;6.04;75.73
36502;BME280;25393;46.108;3.390;2023-03-03T09:08:22;98362.97;;;6.06;75.76
36502;BME280;25393;46.108;3.390;2023-03-03T09:10:48;98368.59;;;6.22;74.12
36502;BME280;25393;46.108;3.390;2023-03-03T09:13:19;98357.34;;;6.30;73.15
36502;BME280;25393;46.108;3.390;2023-03-03T09:15:46;98355.06;;;6.36;73.38
36502;BME280;25393;46.108;3.390;2023-03-03T09:20:54;98361.84;;;6.39;69.91
36502;BME280;25393;46.108;3.390;2023-03-03T09:25:50;98353.69;;;6.51;72.53
36502;BME280;25393;46.108;3.390;2023-03-03T09:28:29;98362.31;;;6.73;70.38
36502;BME280;25393;46.108;3.390;2023-03-03T09:30:58;98365.69;;;7.03;66.04
36502;BME280;25393;46.108;3.390;2023-03-03T09:33:40;98359.69;;;7.11;63.98
36502;BME280;25393;46.108;3.390;2023-03-03T09:36:14;98366.22;;;7.26;65.04
36502;BME280;25393;46.108;3.390;2023-03-03T09:38:44;98350.38;;;7.26;66.04
36502;BME280;25393;46.108;3.390;2023-03-03T10:11:50;98369.03;;;8.45;61.19
36502;BME280;25393;46.108;3.390;2023-03-03T10:20:06;98372.72;;;8.62;60.78
36502;BME280;25393;46.108;3.390;2023-03-03T10:25:41;98385.44;;;8.76;61.20
36502;BME280;25393;46.108;3.390;2023-03-03T10:31:09;98384.53;;;9.02;57.33
36502;BME280;25393;46.108;3.390;2023-03-03T10:33:56;98385.47;;;9.11;58.50
36502;BME280;25393;46.108;3.390;2023-03-03T10:42:18;98380.31;;;9.27;56.26
36502;BME280;25393;46.108;3.390;2023-03-03T10:50:00;98382.75;;;9.46;55.47
36502;BME280;25393;46.108;3.390;2023-03-03T10:53:10;98385.88;;;9.60;56.15
36502;BME280;25393;46.108;3.390;2023-03-03T10:55:49;98381.06;;;9.81;54.50
36502;BME280;25393;46.108;3.390;2023-03-03T11:06:48;98380.88;;;9.82;52.23
36502;BME280;25393;46.108;3.390;2023-03-03T11:15:53;98372.81;;;9.23;55.50
36502;BME280;25393;46.108;3.390;2023-03-03T11:21:21;98367.47;;;8.79;55.47
36502;BME280;25393;46.108;3.390;2023-03-03T11:24:01;98376.25;;;8.52;56.08
36502;BME280;25393;46.108;3.390;2023-03-03T11:35:16;98365.94;;;8.22;58.06
36502;BME280;25393;46.108;3.390;2023-03-03T11:40:27;98355.56;;;8.11;58.91
36502;BME280;25393;46.108;3.390;2023-03-03T11:46:12;98359.84;;;8.22;58.44
36502;BME280;25393;46.108;3.390;2023-03-03T11:49:04;98355.38;;;8.22;58.67
36502;BME280;25393;46.108;3.390;2023-03-03T11:54:41;98335.09;;;8.23;58.21
36502;BME280;25393;46.108;3.390;2023-03-03T11:57:39;98350.94;;;8.23;56.90
36502;BME280;25393;46.108;3.390;2023-03-03T12:03:15;98344.41;;;8.27;55.47
36502;BME280;25393;46.108;3.390;2023-03-03T12:11:54;98342.56;;;8.27;55.63
36502;BME280;25393;46.108;3.390;2023-03-03T12:17:02;98337.34;;;8.45;56.14
36502;BME280;25393;46.108;3.390;2023-03-03T12:19:51;98332.22;;;8.43;55.46
36502;BME280;25393;46.108;3.390;2023-03-03T12:25:17;98331.03;;;8.56;55.35
36502;BME280;25393;46.108;3.390;2023-03-03T12:28:02;98329.38;;;8.55;55.11
36502;BME280;25393;46.108;3.390;2023-03-03T12:33:50;98325.44;;;8.59;55.25
36502;BME280;25393;46.108;3.390;2023-03-03T12:39:20;98331.53;;;8.69;55.21
36502;BME280;25393;46.108;3.390;2023-03-03T12:45:30;98329.09;;;8.93;53.25
36502;BME280;25393;46.108;3.390;2023-03-03T12:48:19;98325.09;;;8.89;53.60
36502;BME280;25393;46.108;3.390;2023-03-03T12:51:20;98311.47;;;8.66;54.84
36502;BME280;25393;46.108;3.390;2023-03-03T12:57:38;98316.63;;;9.03;52.30
36502;BME280;25393;46.108;3.390;2023-03-03T13:10:53;98302.84;;;9.35;50.17
36502;BME280;25393;46.108;3.390;2023-03-03T13:16:03;98303.13;;;9.58;51.36
36502;BME280;25393;46.108;3.390;2023-03-03T13:27:19;98289.09;;;10.17;50.03
36502;BME280;25393;46.108;3.390;2023-03-03T13:32:51;98269.41;;;10.35;50.19
36502;BME280;25393;46.108;3.390;2023-03-03T13:38:11;98259.88;;;10.75;49.11
36502;BME280;25393;46.108;3.390;2023-03-03T13:43:52;98292.72;;;11.06;48.15
36502;BME280;25393;46.108;3.390;2023-03-03T13:56:33;98288.25;;;11.07;47.06
36502;BME280;25393;46.108;3.390;2023-03-03T14:01:51;98287.69;;;10.63;48.32
36502;BME280;25393;46.108;3.390;2023-03-03T14:04:35;98286.44;;;9.91;49.35
36502;BME280;25393;46.108;3.390;2023-03-03T14:07:11;98271.22;;;9.93;50.23
36502;BME280;25393;46.108;3.390;2023-03-03T14:22:53;98277.09;;;10.55;48.69
36502;BME280;25393;46.108;3.390;2023-03-03T14:25:20;98273.41;;;10.39;48.94
36502;BME280;25393;46.108;3.390;2023-03-03T14:40:36;98263.41;;;9.49;51.36
36502;BME280;25393;46.108;3.390;2023-03-03T14:43:39;98276.59;;;9.41;51.36
36502;BME280;25393;46.108;3.390;2023-03-03T14:48:58;98267.22;;;9.03;51.84
36502;BME280;25393;46.108;3.390;2023-03-03T14:51:29;98279.59;;;9.21;52.72
36502;BME280;25393;46.108;3.390;2023-03-03T14:53:57;98270.16;;;9.18;51.60
36502;BME280;25393;46.108;3.390;2023-03-03T14:56:36;98287.75;;;9.10;52.80
36502;BME280;25393;46.108;3.390;2023-03-03T14:59:24;98266.56;;;8.84;53.18
36502;BME280;25393;46.108;3.390;2023-03-03T15:04:45;98265.97;;;8.72;53.45
36502;BME280;25393;46.108;3.390;2023-03-03T15:09:51;98258.50;;;8.50;54.26
36502;BME280;25393;46.108;3.390;2023-03-03T15:14:49;98276.00;;;8.86;53.72
36502;BME280;25393;46.108;3.390;2023-03-03T15:17:23;98293.81;;;9.02;53.23
36502;BME280;25393;46.108;3.390;2023-03-03T15:22:44;98277.06;;;8.76;53.69
36502;BME280;25393;46.108;3.390;2023-03-03T15:31:19;98268.50;;;8.99;52.79
36502;BME280;25393;46.108;3.390;2023-03-03T15:36:30;98283.41;;;9.00;54.10
36502;BME280;25393;46.108;3.390;2023-03-03T15:39:27;98272.22;;;8.89;52.91
36502;BME280;25393;46.108;3.390;2023-03-03T15:42:12;98279.94;;;8.82;53.94
36502;BME280;25393;46.108;3.390;2023-03-03T15:53:20;98281.84;;;8.72;54.93
36502;BME280;25393;46.108;3.390;2023-03-03T15:56:24;98275.41;;;8.57;54.84
36502;BME280;25393;46.108;3.390;2023-03-03T15:58:59;98274.13;;;8.43;55.12
36502;BME280;25393;46.108;3.390;2023-03-03T16:01:32;98281.28;;;8.33;55.31
36502;BME280;25393;46.108;3.390;2023-03-03T16:04:08;98291.97;;;8.32;56.03
36502;BME280;25393;46.108;3.390;2023-03-03T16:21:25;98284.22;;;8.21;57.69
36502;BME280;25393;46.108;3.390;2023-03-03T16:24:00;98281.22;;;8.16;58.73
36502;BME280;25393;46.108;3.390;2023-03-03T16:26:42;98291.38;;;8.11;58.27
36502;BME280;25393;46.108;3.390;2023-03-03T16:29:34;98288.59;;;8.12;58.27
36502;BME280;25393;46.108;3.390;2023-03-03T16:32:31;98284.59;;;8.08;58.44
36502;BME280;25393;46.108;3.390;2023-03-03T16:35:25;98292.41;;;8.00;58.29
36502;BME280;25393;46.108;3.390;2023-03-03T16:38:01;98286.09;;;8.11;57.85
36502;BME280;25393;46.108;3.390;2023-03-03T16:40:33;98284.19;;;8.03;57.35
36502;BME280;25393;46.108;3.390;2023-03-03T16:43:24;98277.22;;;7.84;57.40
36502;BME280;25393;46.108;3.390;2023-03-03T16:45:58;98276.88;;;7.60;57.73
36502;BME280;25393;46.108;3.390;2023-03-03T16:48:36;98296.72;;;7.64;58.21
36502;BME280;25393;46.108;3.390;2023-03-03T16:51:22;98298.56;;;7.54;58.74
36502;BME280;25393;46.108;3.390;2023-03-03T16:54:15;98300.94;;;7.47;59.45
36502;BME280;25393;46.108;3.390;2023-03-03T16:56:45;98299.97;;;7.48;59.66
36502;BME280;25393;46.108;3.390;2023-03-03T17:02:45;98309.59;;;7.30;60.48
36502;BME280;25393;46.108;3.390;2023-03-03T17:11:27;98323.34;;;7.24;60.60
36502;BME280;25393;46.108;3.390;2023-03-03T17:14:20;98325.16;;;7.24;60.78
36502;BME280;25393;46.108;3.390;2023-03-03T17:17:07;98326.66;;;7.26;61.10
36502;BME280;25393;46.108;3.390;2023-03-03T17:19:54;98328.19;;;7.19;61.27
36502;BME280;25393;46.108;3.390;2023-03-03T17:25:43;98341.94;;;7.13;60.84
36502;BME280;25393;46.108;3.390;2023-03-03T17:36:06;98353.88;;;6.79;63.09
36502;BME280;25393;46.108;3.390;2023-03-03T17:46:52;98367.44;;;6.74;65.53
36502;BME280;25393;46.108;3.390;2023-03-03T17:49:45;98364.94;;;6.73;64.63
36502;BME280;25393;46.108;3.390;2023-03-03T17:52:25;98375.75;;;6.70;64.89
36502;BME280;25393;46.108;3.390;2023-03-03T17:55:04;98369.81;;;6.68;64.66
36502;BME280;25393;46.108;3.390;2023-03-03T17:57:49;98373.69;;;6.64;65.15
36502;BME280;25393;46.108;3.390;2023-03-03T18:12:02;98402.84;;;6.32;66.32
36502;BME280;25393;46.108;3.390;2023-03-03T18:22:51;98352.16;;;5.99;67.31
36502;BME280;25393;46.108;3.390;2023-03-03T18:25:22;98382.41;;;6.15;66.89
36502;BME280;25393;46.108;3.390;2023-03-03T18:30:29;98403.66;;;6.32;66.22
36502;BME280;25393;46.108;3.390;2023-03-03T18:33:05;98396.34;;;6.06;66.97
36502;BME280;25393;46.108;3.390;2023-03-03T18:41:08;98410.19;;;5.98;67.99
36502;BME280;25393;46.108;3.390;2023-03-03T18:43:40;98414.13;;;6.13;67.43
36502;BME280;25393;46.108;3.390;2023-03-03T18:49:11;98406.84;;;5.96;68.49
36502;BME280;25393;46.108;3.390;2023-03-03T18:56:46;98370.38;;;5.71;68.25